createdAt,value
2023-05-16T00:00:55.526Z,12.77
2023-05-16T00:03:22.205Z,11.60
2023-05-16T00:05:48.675Z,10.55
2023-05-16T00:08:15.234Z,8.23
2023-05-16T00:10:41.721Z,10.85
2023-05-16T00:13:08.214Z,9.48
2023-05-16T00:15:34.869Z,10.57
2023-05-16T00:18:01.705Z,12.43
2023-05-16T00:20:28.863Z,11.95
2023-05-16T00:22:55.962Z,10.55
2023-05-16T00:25:23.182Z,10.30
2023-05-16T00:27:49.791Z,6.43
2023-05-16T00:30:16.338Z,9.32
2023-05-16T00:32:43.214Z,10.00
2023-05-16T00:35:11.473Z,12.02
2023-05-16T00:37:38.713Z,11.13
2023-05-16T00:40:05.880Z,14.52
2023-05-16T00:42:32.457Z,9.43
2023-05-16T00:44:59.026Z,6.47
2023-05-16T00:47:25.716Z,10.63
2023-05-16T00:49:52.564Z,7.70
2023-05-16T00:52:19.054Z,7.03
2023-05-16T00:54:45.665Z,9.95
2023-05-16T00:57:16.269Z,10.02
2023-05-16T00:59:44.586Z,12.23
2023-05-16T01:02:11.223Z,8.32
2023-05-16T01:04:37.742Z,10.55
2023-05-16T01:07:04.400Z,8.43
2023-05-16T01:09:31.640Z,9.38
2023-05-16T01:12:11.114Z,8.10
2023-05-16T01:14:56.415Z,8.82
2023-05-16T01:17:59.679Z,8.77
2023-05-16T01:20:26.093Z,7.25
2023-05-16T01:23:05.451Z,7.47
2023-05-16T01:26:05.695Z,9.55
2023-05-16T01:28:32.435Z,9.65
2023-05-16T01:30:58.974Z,12.13
2023-05-16T01:33:25.576Z,8.90
2023-05-16T01:36:04.033Z,10.35
2023-05-16T01:38:44.637Z,7.60
2023-05-16T01:41:29.569Z,6.00
2023-05-16T01:44:05.034Z,13.38
2023-05-16T01:46:37.348Z,13.07
2023-05-16T01:49:25.188Z,6.15
2023-05-16T01:51:56.014Z,11.40
2023-05-16T01:54:26.440Z,10.95
2023-05-16T01:56:55.337Z,8.18
2023-05-16T01:59:24.120Z,10.63
2023-05-16T02:01:53.954Z,7.82
2023-05-16T02:04:20.660Z,13.25
2023-05-16T02:06:47.290Z,8.38
2023-05-16T02:09:13.771Z,6.15
2023-05-16T02:11:40.186Z,10.75
2023-05-16T02:14:06.610Z,7.47
2023-05-16T02:16:34.067Z,12.23
2023-05-16T02:19:00.881Z,10.25
2023-05-16T02:21:27.345Z,11.40
2023-05-16T02:23:53.843Z,7.53
2023-05-16T02:26:20.721Z,11.35
2023-05-16T02:28:49.437Z,9.55
2023-05-16T02:31:29.352Z,7.88
2023-05-16T02:33:57.282Z,9.77
2023-05-16T02:36:24.130Z,6.95
2023-05-16T02:38:50.712Z,15.32
2023-05-16T02:41:17.161Z,8.57
2023-05-16T02:43:46.824Z,12.30
2023-05-16T02:46:25.822Z,5.07
2023-05-16T02:48:52.503Z,6.80
2023-05-16T02:51:22.026Z,7.15
2023-05-16T02:53:49.046Z,8.77
2023-05-16T02:56:15.530Z,7.30
2023-05-16T02:58:42.536Z,10.02
2023-05-16T03:01:09.846Z,12.20
2023-05-16T03:03:37.538Z,9.50
2023-05-16T03:06:04.142Z,12.55
2023-05-16T03:08:30.848Z,8.10
2023-05-16T03:10:57.223Z,12.05
2023-05-16T03:13:23.972Z,5.65
2023-05-16T03:15:50.774Z,11.52
2023-05-16T03:18:17.442Z,7.50
2023-05-16T03:20:43.923Z,9.90
2023-05-16T03:23:10.571Z,10.00
2023-05-16T03:25:37.650Z,6.95
2023-05-16T03:28:06.950Z,6.68
2023-05-16T03:30:34.323Z,6.93
2023-05-16T03:33:01.090Z,11.77
2023-05-16T03:35:34.729Z,7.90
2023-05-16T03:38:01.484Z,8.65
2023-05-16T03:40:27.990Z,9.75
2023-05-16T03:42:54.397Z,9.25
2023-05-16T03:45:20.971Z,5.28
2023-05-16T03:47:49.338Z,7.40
2023-05-16T03:50:16.495Z,5.40
2023-05-16T03:52:43.384Z,9.65
2023-05-16T03:55:10.442Z,9.50
2023-05-16T03:57:40.888Z,7.55
2023-05-16T04:00:08.643Z,7.85
2023-05-16T04:02:35.363Z,7.38
2023-05-16T04:05:01.894Z,9.88
2023-05-16T04:07:28.358Z,7.10
2023-05-16T04:09:55.776Z,10.32
2023-05-16T04:12:23.085Z,9.40
2023-05-16T04:14:49.518Z,8.30
2023-05-16T04:17:16.168Z,8.93
2023-05-16T04:19:42.724Z,10.43
2023-05-16T04:22:09.367Z,5.88
2023-05-16T04:24:35.797Z,12.55
2023-05-16T04:27:02.338Z,10.35
2023-05-16T04:29:29.166Z,9.85
2023-05-16T04:31:55.794Z,8.95
2023-05-16T04:34:23.230Z,8.27
2023-05-16T04:36:49.697Z,8.52
2023-05-16T04:39:16.240Z,9.43
2023-05-16T04:41:42.637Z,5.80
2023-05-16T04:44:11.092Z,5.75
2023-05-16T04:46:37.672Z,7.05
2023-05-16T04:49:04.618Z,6.97
2023-05-16T04:51:32.603Z,5.18
2023-05-16T04:53:59.145Z,10.90
2023-05-16T04:56:26.785Z,10.02
2023-05-16T04:58:54.590Z,7.90
2023-05-16T05:01:21.430Z,6.75
2023-05-16T05:03:48.507Z,9.50
2023-05-16T05:06:15.065Z,9.23
2023-05-16T05:08:41.732Z,6.88
2023-05-16T05:11:08.225Z,5.90
2023-05-16T05:13:34.621Z,6.85
2023-05-16T05:16:02.045Z,10.38
2023-05-16T05:18:28.767Z,5.80
2023-05-16T05:20:55.287Z,6.03
2023-05-16T05:23:21.929Z,9.82
2023-05-16T05:25:48.523Z,9.18
2023-05-16T05:28:15.040Z,12.77
2023-05-16T05:30:43.217Z,10.02
2023-05-16T05:33:11.763Z,9.25
2023-05-16T05:35:38.373Z,6.63
2023-05-16T05:38:04.822Z,7.55
2023-05-16T05:40:31.265Z,8.80
2023-05-16T05:42:57.715Z,12.25
2023-05-16T05:45:24.077Z,6.65
2023-05-16T05:47:51.085Z,6.78
2023-05-16T05:50:17.724Z,8.07
2023-05-16T05:52:44.354Z,8.13
2023-05-16T05:55:11.130Z,7.60
2023-05-16T05:57:37.768Z,9.05
2023-05-16T06:00:05.323Z,9.30
2023-05-16T06:02:31.938Z,7.65
2023-05-16T06:04:58.460Z,4.88
2023-05-16T06:07:24.929Z,7.35
2023-05-16T06:09:52.091Z,6.22
2023-05-16T06:12:18.472Z,7.25
2023-05-16T06:14:46.054Z,9.52
2023-05-16T06:17:12.606Z,3.17
2023-05-16T06:19:39.274Z,7.10
2023-05-16T06:22:05.839Z,9.05
2023-05-16T06:24:32.311Z,5.78
2023-05-16T06:26:58.714Z,5.25
2023-05-16T06:29:25.434Z,5.40
2023-05-16T06:31:52.155Z,5.30
2023-05-16T06:34:18.981Z,6.65
2023-05-16T06:36:45.508Z,8.93
2023-05-16T06:39:12.037Z,4.75
2023-05-16T06:41:38.515Z,4.82
2023-05-16T06:44:05.159Z,11.43
2023-05-16T06:46:32.720Z,6.95
2023-05-16T06:48:59.473Z,7.30
2023-05-16T06:51:25.957Z,5.50
2023-05-16T06:53:52.429Z,8.38
2023-05-16T06:56:18.956Z,6.28
2023-05-16T06:58:45.900Z,5.95
2023-05-16T07:01:12.478Z,5.72
2023-05-16T07:03:39.332Z,3.78
2023-05-16T07:06:06.002Z,7.82
2023-05-16T07:08:33.075Z,6.30
2023-05-16T07:10:59.509Z,8.50
2023-05-16T07:13:26.076Z,3.35
2023-05-16T07:15:52.690Z,7.82
2023-05-16T07:18:19.299Z,3.78
2023-05-16T07:20:46.100Z,5.25
2023-05-16T07:23:12.547Z,5.18
2023-05-16T07:25:39.111Z,2.60
2023-05-16T07:28:05.750Z,4.35
2023-05-16T07:30:32.392Z,4.18
2023-05-16T07:33:01.822Z,5.88
2023-05-16T07:35:28.550Z,4.75
2023-05-16T07:37:55.460Z,4.80
2023-05-16T07:40:25.848Z,6.30
2023-05-16T07:42:52.365Z,5.97
2023-05-16T07:45:19.204Z,5.97
2023-05-16T07:47:46.353Z,5.40
2023-05-16T07:50:12.958Z,4.05
2023-05-16T07:52:39.467Z,5.50
2023-05-16T07:55:06.456Z,6.95
2023-05-16T07:57:33.047Z,5.85
2023-05-16T07:59:59.650Z,6.97
2023-05-16T08:02:30.567Z,6.00
2023-05-16T08:05:00.383Z,3.22
2023-05-16T08:07:26.996Z,3.75
2023-05-16T08:09:53.692Z,6.68
2023-05-16T08:12:20.333Z,5.65
2023-05-16T08:14:47.119Z,5.15
2023-05-16T08:17:16.439Z,6.68
2023-05-16T08:19:43.177Z,4.45
2023-05-16T08:22:09.962Z,4.90
2023-05-16T08:24:36.512Z,5.78
2023-05-16T08:27:02.995Z,5.03
2023-05-16T08:29:30.229Z,5.47
2023-05-16T08:31:56.804Z,5.38
2023-05-16T08:34:23.463Z,2.10
2023-05-16T08:36:50.076Z,2.65
2023-05-16T08:39:16.755Z,5.25
2023-05-16T08:41:43.666Z,8.88
2023-05-16T08:44:12.457Z,4.18
2023-05-16T08:46:41.524Z,5.30
2023-05-16T08:49:09.247Z,4.43
2023-05-16T08:51:37.694Z,5.15
2023-05-16T08:54:09.181Z,5.65
2023-05-16T08:56:37.038Z,5.13
2023-05-16T08:59:04.616Z,3.88
2023-05-16T09:01:34.444Z,2.95
2023-05-16T09:04:01.467Z,6.18
2023-05-16T09:06:28.171Z,3.58
2023-05-16T09:08:55.338Z,8.07
2023-05-16T09:11:22.036Z,9.30
2023-05-16T09:13:51.273Z,4.80
2023-05-16T09:16:19.584Z,8.43
2023-05-16T09:19:01.884Z,2.92
2023-05-16T09:21:31.854Z,4.00
2023-05-16T09:24:08.640Z,4.07
2023-05-16T09:26:37.299Z,2.70
2023-05-16T09:29:12.312Z,3.38
2023-05-16T09:31:39.085Z,4.25
2023-05-16T09:34:11.124Z,4.40
2023-05-16T09:36:37.700Z,2.65
2023-05-16T09:39:08.666Z,5.22
2023-05-16T09:41:36.434Z,5.47
2023-05-16T09:44:06.922Z,5.90
2023-05-16T09:46:38.116Z,6.47
2023-05-16T09:49:05.004Z,5.53
2023-05-16T09:51:32.143Z,4.95
2023-05-16T09:53:59.023Z,6.22
2023-05-16T09:56:25.434Z,5.00
2023-05-16T09:58:52.548Z,3.55
2023-05-16T10:01:19.581Z,4.85
2023-05-16T10:03:46.241Z,3.90
2023-05-16T10:06:16.583Z,3.70
2023-05-16T10:08:43.873Z,4.22
2023-05-16T10:11:11.754Z,2.83
2023-05-16T10:13:42.554Z,4.88
2023-05-16T10:18:41.341Z,3.00
2023-05-16T10:21:15.665Z,4.85
2023-05-16T10:23:43.929Z,3.53
2023-05-16T10:26:14.850Z,3.28
2023-05-16T10:28:42.016Z,3.72
2023-05-16T10:31:11.069Z,5.60
2023-05-16T10:33:38.849Z,4.53
2023-05-16T10:36:06.009Z,4.30
2023-05-16T10:38:34.560Z,6.13
2023-05-16T10:41:01.915Z,6.93
2023-05-16T10:43:31.006Z,4.45
2023-05-16T10:45:59.884Z,3.75
2023-05-16T10:48:31.662Z,4.55
2023-05-16T10:50:58.265Z,3.33
2023-05-16T10:53:33.006Z,5.75
2023-05-16T10:55:59.407Z,3.30
2023-05-16T10:58:35.709Z,5.97
2023-05-16T11:01:27.128Z,4.55
2023-05-16T11:03:57.320Z,5.88
2023-05-16T11:06:25.572Z,5.55
2023-05-16T11:09:05.850Z,5.88
2023-05-16T11:11:53.610Z,3.42
2023-05-16T11:14:29.018Z,2.20
2023-05-16T11:17:15.404Z,3.97
2023-05-16T11:20:00.910Z,4.65
2023-05-16T11:22:32.822Z,3.35
2023-05-16T11:24:59.290Z,4.60
2023-05-16T11:27:31.177Z,6.85
2023-05-16T11:30:06.609Z,7.35
2023-05-16T11:32:41.435Z,3.63
2023-05-16T11:35:14.321Z,3.47
2023-05-16T11:37:42.864Z,3.13
2023-05-16T11:40:12.218Z,7.25
2023-05-16T11:42:50.430Z,3.83
2023-05-16T11:45:19.253Z,3.42
2023-05-16T11:47:50.613Z,3.40
2023-05-16T11:50:26.821Z,4.78
2023-05-16T11:52:56.722Z,5.07
2023-05-16T11:55:41.180Z,5.05
2023-05-16T11:58:09.478Z,3.85
2023-05-16T12:00:36.332Z,4.55
2023-05-16T12:03:05.916Z,5.45
2023-05-16T12:05:34.577Z,4.75
2023-05-16T12:08:02.826Z,3.08
2023-05-16T12:10:31.838Z,3.75
2023-05-16T12:12:58.671Z,6.35
2023-05-16T12:15:25.698Z,3.53
2023-05-16T12:17:52.801Z,2.67
2023-05-16T12:20:19.739Z,6.40
2023-05-16T12:22:46.680Z,1.83
2023-05-16T12:25:23.127Z,5.38
2023-05-16T12:27:49.976Z,4.75
2023-05-16T12:30:21.580Z,4.60
2023-05-16T12:32:53.393Z,3.20
2023-05-16T12:35:20.060Z,5.60
2023-05-16T12:37:46.674Z,5.18
2023-05-16T12:40:13.438Z,6.97
2023-05-16T12:42:39.941Z,6.03
2023-05-16T12:45:16.047Z,3.03
2023-05-16T12:47:43.000Z,5.78
2023-05-16T12:50:14.496Z,8.13
2023-05-16T12:52:52.579Z,6.72
2023-05-16T12:55:21.037Z,6.38
2023-05-16T12:57:48.787Z,3.63
2023-05-16T13:00:21.065Z,5.15
2023-05-16T13:02:48.770Z,5.18
2023-05-16T13:05:15.903Z,3.50
2023-05-16T13:07:42.674Z,3.83
2023-05-16T13:10:13.338Z,3.97
2023-05-16T13:15:09.678Z,4.18
2023-05-16T13:17:37.356Z,8.63
2023-05-16T13:20:08.991Z,2.88
2023-05-16T13:22:45.118Z,6.65
2023-05-16T13:25:12.137Z,3.33
2023-05-16T13:27:38.709Z,6.45
2023-05-16T13:30:05.785Z,5.88
2023-05-16T13:32:32.400Z,6.22
2023-05-16T13:34:59.098Z,3.60
2023-05-16T13:37:25.788Z,5.65
2023-05-16T13:39:54.801Z,5.28
2023-05-16T13:42:21.662Z,4.55
2023-05-16T13:44:48.390Z,5.78
2023-05-16T13:47:14.911Z,7.10
2023-05-16T13:49:41.471Z,5.85
2023-05-16T13:52:08.596Z,4.30
2023-05-16T13:54:35.246Z,6.07
2023-05-16T13:57:03.430Z,3.85
2023-05-16T13:59:52.588Z,3.80
2023-05-16T14:02:16.862Z,4.38
2023-05-16T14:04:43.432Z,5.60
2023-05-16T14:07:10.003Z,9.73
2023-05-16T14:09:39.518Z,5.43
2023-05-16T14:12:07.483Z,5.95
2023-05-16T14:14:37.442Z,6.82
2023-05-16T14:17:04.317Z,5.90
2023-05-16T14:19:31.622Z,6.78
2023-05-16T14:21:58.407Z,2.45
2023-05-16T14:24:25.147Z,5.35
2023-05-16T14:26:58.159Z,5.40
2023-05-16T14:29:25.675Z,5.65
2023-05-16T14:31:52.809Z,4.60
2023-05-16T14:34:19.505Z,4.20
2023-05-16T14:36:49.050Z,2.70
2023-05-16T14:39:15.702Z,4.18
2023-05-16T14:41:42.195Z,4.50
2023-05-16T14:44:08.759Z,5.15
2023-05-16T14:46:35.488Z,2.25
2023-05-16T14:49:02.294Z,5.60
2023-05-16T14:51:28.846Z,4.43
2023-05-16T14:53:55.512Z,3.40
2023-05-16T14:56:22.730Z,4.55
2023-05-16T14:58:49.356Z,3.55
2023-05-16T15:01:16.684Z,5.15
2023-05-16T15:03:54.410Z,4.15
2023-05-16T15:06:23.491Z,2.28
2023-05-16T15:08:50.833Z,4.28
2023-05-16T15:11:17.450Z,3.90
2023-05-16T15:13:43.957Z,3.55
2023-05-16T15:16:10.726Z,3.10
2023-05-16T15:18:37.537Z,5.78
2023-05-16T15:21:04.354Z,4.57
2023-05-16T15:23:30.958Z,5.22
2023-05-16T15:25:57.656Z,2.50
2023-05-16T15:28:24.415Z,3.90
2023-05-16T15:30:51.560Z,5.20
2023-05-16T15:33:18.149Z,4.47
2023-05-16T15:35:44.830Z,3.10
2023-05-16T15:38:11.672Z,2.30
2023-05-16T15:40:38.240Z,3.22
2023-05-16T15:43:04.817Z,4.68
2023-05-16T15:45:32.578Z,2.65
2023-05-16T15:47:59.439Z,3.72
2023-05-16T15:50:26.486Z,5.70
2023-05-16T15:52:53.181Z,3.53
2023-05-16T15:55:19.907Z,5.68
2023-05-16T15:57:46.508Z,3.50
2023-05-16T16:00:13.722Z,4.90
2023-05-16T16:02:41.466Z,4.32
2023-05-16T16:05:08.510Z,2.22
2023-05-16T16:07:35.080Z,4.57
2023-05-16T16:10:02.025Z,6.47
2023-05-16T16:12:31.898Z,4.53
2023-05-16T16:14:58.524Z,5.75
2023-05-16T16:17:25.081Z,4.75
2023-05-16T16:19:51.839Z,3.30
2023-05-16T16:22:19.761Z,5.18
2023-05-16T16:24:47.578Z,4.18
2023-05-16T16:27:14.190Z,5.93
2023-05-16T16:29:40.783Z,2.03
2023-05-16T16:32:07.775Z,2.97
2023-05-16T16:34:34.350Z,3.50
2023-05-16T16:37:00.912Z,4.00
2023-05-16T16:39:28.934Z,5.70
2023-05-16T16:41:56.816Z,5.65
2023-05-16T16:44:23.376Z,2.58
2023-05-16T16:46:50.045Z,6.32
2023-05-16T16:49:16.603Z,3.30
2023-05-16T16:51:43.231Z,5.80
2023-05-16T16:54:19.128Z,5.24
2023-05-16T16:56:47.519Z,3.85
2023-05-16T16:59:16.260Z,5.90
2023-05-16T17:01:42.866Z,6.07
2023-05-16T17:04:09.431Z,3.28
2023-05-16T17:06:35.982Z,4.97
2023-05-16T17:09:05.019Z,3.90
2023-05-16T17:11:31.924Z,6.50
2023-05-16T17:13:59.727Z,7.22
2023-05-16T17:16:28.735Z,5.75
2023-05-16T17:18:56.240Z,3.90
2023-05-16T17:21:22.830Z,4.65
2023-05-16T17:23:52.228Z,7.30
2023-05-16T17:26:18.834Z,5.85
2023-05-16T17:28:48.921Z,3.35
2023-05-16T17:31:15.890Z,7.93
2023-05-16T17:33:42.481Z,5.57
2023-05-16T17:36:09.028Z,5.07
2023-05-16T17:38:35.592Z,5.95
2023-05-16T17:41:02.736Z,7.32
2023-05-16T17:43:30.928Z,4.63
2023-05-16T17:45:57.760Z,3.25
2023-05-16T17:48:24.553Z,7.13
2023-05-16T17:50:51.383Z,3.55
2023-05-16T17:53:18.017Z,3.10
2023-05-16T17:55:44.643Z,4.07
2023-05-16T17:58:11.181Z,5.90
2023-05-16T18:00:38.487Z,7.03
2023-05-16T18:03:06.362Z,5.45
2023-05-16T18:05:33.178Z,8.35
2023-05-16T18:07:59.792Z,4.63
2023-05-16T18:10:29.619Z,4.60
2023-05-16T18:15:29.924Z,4.07
2023-05-16T18:17:56.847Z,2.80
2023-05-16T18:20:23.479Z,5.85
2023-05-16T18:22:52.073Z,5.30
2023-05-16T18:25:18.705Z,5.78
2023-05-16T18:27:45.344Z,6.93
2023-05-16T18:30:13.391Z,5.35
2023-05-16T18:32:40.157Z,6.72
2023-05-16T18:35:07.093Z,7.40
2023-05-16T18:37:33.897Z,7.38
2023-05-16T18:40:00.515Z,5.22
2023-05-16T18:42:27.328Z,3.70
2023-05-16T18:44:53.909Z,7.22
2023-05-16T18:47:21.020Z,7.53
2023-05-16T18:49:47.877Z,5.97
2023-05-16T18:52:14.541Z,6.60
2023-05-16T18:54:41.310Z,7.43
2023-05-16T18:57:08.061Z,6.68
2023-05-16T18:59:36.099Z,7.13
2023-05-16T19:02:02.691Z,7.68
2023-05-16T19:04:29.439Z,8.05
2023-05-16T19:06:57.974Z,6.50
2023-05-16T19:09:25.239Z,4.25
2023-05-16T19:11:51.709Z,7.53
2023-05-16T19:14:18.336Z,7.47
2023-05-16T19:16:44.802Z,7.75
2023-05-16T19:19:11.490Z,6.63
2023-05-16T19:21:39.150Z,9.15
2023-05-16T19:24:06.145Z,8.13
2023-05-16T19:26:32.714Z,9.15
2023-05-16T19:29:00.339Z,5.07
2023-05-16T19:31:27.077Z,6.90
2023-05-16T19:33:53.586Z,8.85
2023-05-16T19:36:20.157Z,8.52
2023-05-16T19:38:46.807Z,6.10
2023-05-16T19:41:13.458Z,8.73
2023-05-16T19:43:39.963Z,8.82
2023-05-16T19:46:06.464Z,9.45
2023-05-16T19:48:33.600Z,7.25
2023-05-16T19:51:00.221Z,6.93
2023-05-16T19:53:26.797Z,6.60
2023-05-16T19:55:53.452Z,7.25
2023-05-16T19:58:20.136Z,8.73
2023-05-16T20:00:47.163Z,7.25
2023-05-16T20:03:14.129Z,7.95
2023-05-16T20:05:40.913Z,7.50
2023-05-16T20:08:07.724Z,10.07
2023-05-16T20:10:35.312Z,8.30
2023-05-16T20:13:01.858Z,8.00
2023-05-16T20:15:28.572Z,7.50
2023-05-16T20:17:55.408Z,8.95
2023-05-16T20:20:22.209Z,7.78
2023-05-16T20:22:48.761Z,8.27
2023-05-16T20:25:15.366Z,7.93
2023-05-16T20:27:41.963Z,6.47
2023-05-16T20:30:09.017Z,10.15
2023-05-16T20:32:36.120Z,8.27
2023-05-16T20:35:04.308Z,8.30
2023-05-16T20:37:30.885Z,7.03
2023-05-16T20:39:57.442Z,11.48
2023-05-16T20:42:23.976Z,11.32
2023-05-16T20:44:50.713Z,9.55
2023-05-16T20:47:17.721Z,12.80
2023-05-16T20:49:44.562Z,9.05
2023-05-16T20:52:11.125Z,9.93
2023-05-16T20:54:37.751Z,8.55
2023-05-16T20:57:04.680Z,9.60
2023-05-16T20:59:32.303Z,10.75
2023-05-16T21:01:58.935Z,8.10
2023-05-16T21:04:25.690Z,7.72
2023-05-16T21:06:52.473Z,14.10
2023-05-16T21:09:19.222Z,12.32
2023-05-16T21:11:45.762Z,12.07
2023-05-16T21:14:12.414Z,11.02
2023-05-16T21:16:38.977Z,11.55
2023-05-16T21:19:05.895Z,6.88
2023-05-16T21:21:32.724Z,10.13
2023-05-16T21:23:59.386Z,13.23
2023-05-16T21:26:26.036Z,10.50
2023-05-16T21:28:55.642Z,10.93
2023-05-16T21:31:22.726Z,12.95
2023-05-16T21:33:51.943Z,10.35
2023-05-16T21:36:19.716Z,10.50
2023-05-16T21:38:46.657Z,11.40
2023-05-16T21:41:13.376Z,7.30
2023-05-16T21:43:40.328Z,9.77
2023-05-16T21:46:07.046Z,11.02
2023-05-16T21:48:34.032Z,9.30
2023-05-16T21:51:00.730Z,7.18
2023-05-16T21:53:27.281Z,11.45
2023-05-16T21:55:53.881Z,13.20
2023-05-16T21:58:20.633Z,10.27
2023-05-16T22:00:47.461Z,10.65
2023-05-16T22:03:14.234Z,10.98
2023-05-16T22:05:40.809Z,11.43
2023-05-16T22:08:08.011Z,13.07
2023-05-16T22:10:34.635Z,9.05
2023-05-16T22:13:01.236Z,11.55
2023-05-16T22:15:27.901Z,10.63
2023-05-16T22:17:54.855Z,9.32
2023-05-16T22:20:21.593Z,9.40
2023-05-16T22:22:49.229Z,9.43
2023-05-16T22:25:15.782Z,10.38
2023-05-16T22:27:42.588Z,11.32
2023-05-16T22:30:09.474Z,14.85
2023-05-16T22:32:36.077Z,13.98
2023-05-16T22:35:04.936Z,12.43
2023-05-16T22:37:31.583Z,14.10
2023-05-16T22:39:58.216Z,8.18
2023-05-16T22:42:24.866Z,10.73
2023-05-16T22:44:51.349Z,9.73
2023-05-16T22:47:17.911Z,9.68
2023-05-16T22:49:44.490Z,15.60
2023-05-16T22:52:10.960Z,7.38
2023-05-16T22:54:37.562Z,10.73
2023-05-16T22:57:04.132Z,13.48
2023-05-16T22:59:31.069Z,12.38
2023-05-16T23:01:57.550Z,10.27
2023-05-16T23:04:24.228Z,11.93
2023-05-16T23:06:50.801Z,9.57
2023-05-16T23:09:17.358Z,13.60
2023-05-16T23:11:43.853Z,12.07
2023-05-16T23:14:10.645Z,12.55
2023-05-16T23:16:37.158Z,15.35
2023-05-16T23:19:04.224Z,12.10
2023-05-16T23:21:31.627Z,11.65
2023-05-16T23:23:58.131Z,12.43
2023-05-16T23:26:25.379Z,10.60
2023-05-16T23:28:52.210Z,17.92
2023-05-16T23:31:18.749Z,12.38
2023-05-16T23:33:45.392Z,15.43
2023-05-16T23:36:12.037Z,9.40
2023-05-16T23:38:38.638Z,11.77
2023-05-16T23:41:05.301Z,13.02
2023-05-16T23:43:31.768Z,9.95
2023-05-16T23:45:58.357Z,16.48
2023-05-16T23:48:25.189Z,12.52
2023-05-16T23:50:51.778Z,14.07
2023-05-16T23:53:18.372Z,12.65
2023-05-16T23:55:44.909Z,15.25
2023-05-16T23:58:11.730Z,12.48
